Pagrindinis puslapis
METAR-TAF:

METAR-TAF

Oro uostai :

Kopenhaga, Danija

platuma: 55-37N, ilguma: 012-39E, Aukštis: 5 m

Dabartinis oras

Ataskaita buvo paskelbta 5 minutes, ne 04:50 UTC
Vėjas 7 kt iš Pietvakarių
Temperatūra 16°C
Drėgmė 82%
Slėgis 1018 hPa
Matomumas 10 km arba daugiau

METAR: EKCH 200450Z AUTO 22007KT 9999 NCD 16/13 Q1018 NOSIG

Laikas: 06:55 (04:55 UTC)

Prognozė

Ataskaita buvo paskelbta 5 valandos ir 46 minutes, ne 23:09 UTC
Prognozė galioja nuo 20 metu 00 UTC su 20 metu 24 UTC
Vėjas 10 kt iš Vakarų/Pietvakarių
Matomumas 10 km arba daugiau
Išsisklaidę debesys ne aukštis 3000 ft
Laikinai
nuo 20 metu 09 UTC su 20 metu 16 UTC
Mažai debesys ne aukštis 2000 ft, Liūtiniai kamuoliniai debesys.

TAF: EKCH 192309Z 2000/2024 24010KT 9999 SCT030 TEMPO 2009/2016 FEW020CB

Orai ataskaitas ir orų prognozės (METAR, TAF).

turimą stotys yra geltonos ir raudonos taškus žemėlapyje.

Perkelti pele per norėdami pamatyti stoties vardą.

Tada spustelėkite, norėdami matyti oro stebėjimo ir prognozės.

Norėdami pakeisti žemėlapį: spustelėkite ant žalios mygtukų su juodo kryžiaus žemyn,; žalią mygtuką su brūkšneliu, jei norite nutolinti; arba žalių rodyklių gretimoms žemėlapius.


METAR-TAF: